Latest Weather Observations for Legendre Island

IDW60801

Issued at 5:04 pm WST Saturday 3 December 2016 (issued every 30 minutes, with the page automatically refreshed every 10 minutes)

About weather observations | Map of weather stations | Latest weather observations for WA | Other Formats
Station Details ID: 004095 Name: LEGENDRE ISLAND Lat: -20.36 Lon: 116.84 Height: 29.0 m
Data from the previous 72 hours. | See also: Recent months at Legendre Island
Date/Time
WST
Temp
°C
App
Temp
°C
Dew
Point
°C
Rel
Hum
%
Delta-T
°C
Wind Press
QNH
hPa
Press
MSL
hPa
Rain since
9am
mm
Dir  Spd
km/h
Gust
km/h
Spd
kts
Gust
kts
03/05:00pm 27.9 27.7 22.8 74 3.5 W 28 35 15 19 1006.6 1006.4 -
03/04:30pm 27.9 26.9 22.6 73 3.6 W 32 37 17 20 1006.6 1006.4 -
03/04:00pm 27.9 26.8 22.4 72 3.7 W 32 35 17 19 1006.6 1006.4 -
03/03:30pm 28.6 28.0 22.6 70 4.1 W 30 33 16 18 1006.7 1006.5 -
03/03:00pm 29.3 29.0 23.3 70 4.1 WNW 30 35 16 19 1006.9 1006.7 -
03/02:30pm 29.2 29.0 22.7 68 4.4 W 28 33 15 18 1007.1 1006.9 -
03/02:00pm 29.0 28.1 22.2 66 4.6 W 30 35 16 19 1007.1 1006.9 -
03/01:30pm 29.4 29.1 22.6 67 4.6 WNW 28 35 15 19 1007.6 1007.4 -
03/01:00pm 28.8 29.0 22.1 67 4.5 W 24 30 13 16 1007.7 1007.5 -
03/12:30pm 29.0 28.9 22.2 66 4.6 WNW 26 32 14 17 1007.9 1007.7 -
03/12:00pm 29.6 30.1 22.6 66 4.8 W 24 28 13 15 1008.1 1007.9 -
03/11:30am 29.1 29.0 22.3 66 4.6 W 26 30 14 16 1008.2 1008.0 -
03/11:00am 29.2 29.9 22.9 69 4.3 W 24 30 13 16 1008.2 1008.0 -
03/10:30am 29.1 29.5 23.1 70 4.1 WSW 26 30 14 16 1008.4 1008.2 -
03/10:00am 29.5 30.2 23.7 71 4.0 WSW 26 33 14 18 1008.5 1008.3 -
03/09:30am 28.6 28.5 23.5 74 3.5 WSW 30 35 16 19 1008.2 1008.0 -
03/09:00am 28.6 28.0 23.7 75 3.4 WSW 33 41 18 22 1008.0 1007.8 -
03/08:30am 28.4 29.0 24.2 78 2.9 WSW 28 35 15 19 1007.9 1007.7 -
03/08:00am 27.6 27.9 24.2 82 2.4 WSW 30 35 16 19 1007.7 1007.5 -
03/07:30am 27.1 27.1 24.4 85 1.9 WSW 32 39 17 21 1007.2 1007.0 -
03/07:00am 26.6 26.8 25.0 91 1.1 WSW 33 39 18 21 1007.2 1007.0 -
03/06:30am 25.7 25.9 24.7 94 0.7 WSW 32 39 17 21 1006.9 1006.7 -
03/06:00am 25.2 25.1 24.5 96 0.5 WSW 33 39 18 21 1006.9 1006.7 -
03/05:30am 25.0 24.8 24.1 95 0.6 WSW 32 39 17 21 1006.5 1006.3 -
03/05:00am 25.0 24.7 23.2 90 1.2 WSW 30 35 16 19 1006.2 1006.0 -
03/04:30am 24.9 24.0 22.8 88 1.4 WSW 32 41 17 22 1006.3 1006.1 -
03/04:00am 24.9 24.3 23.7 93 0.8 WSW 33 39 18 21 1006.1 1005.9 -
03/03:30am 25.0 24.9 24.3 96 0.5 WSW 32 39 17 21 1006.2 1006.0 -
03/03:00am 24.9 25.3 24.4 97 0.3 W 30 35 16 19 1006.2 1006.0 -
03/02:30am 25.0 25.2 24.7 98 0.2 WSW 32 39 17 21 1006.4 1006.2 -
03/02:00am 25.0 25.8 25.0 100 0.0 WSW 30 39 16 21 1006.3 1006.1 -
03/01:30am 25.1 25.5 25.1 100 0.0 WSW 32 37 17 20 1006.3 1006.1 -
03/01:00am 25.1 25.0 25.1 100 0.0 WSW 35 39 19 21 1006.3 1006.1 -
03/12:30am 25.1 25.0 25.1 100 0.0 WSW 35 41 19 22 1006.3 1006.1 -
03/12:00am 25.2 25.4 25.0 99 0.1 WSW 33 43 18 23 1006.6 1006.4 -
 
Date/Time
WST
Temp
°C
App
Temp
°C
Dew
Point
°C
Rel
Hum
%
Delta-T
°C
Wind Press
QNH
hPa
Press
MSL
hPa
Rain since
9am
mm
Dir  Spd
km/h
Gust
km/h
Spd
kts
Gust
kts
02/11:30pm 25.5 26.0 25.2 98 0.2 W 32 39 17 21 1006.8 1006.6 -
02/11:00pm 25.5 25.3 25.0 97 0.3 W 35 43 19 23 1006.5 1006.3 -
02/10:30pm 25.5 24.7 24.6 95 0.6 W 37 43 20 23 1006.8 1006.6 -
02/10:00pm 25.6 25.5 24.6 94 0.7 W 33 39 18 21 1006.8 1006.6 -
02/09:30pm 25.7 25.1 24.3 92 1.0 W 35 41 19 22 1006.7 1006.5 -
02/09:00pm 25.8 25.5 24.2 91 1.1 W 33 39 18 21 1006.7 1006.5 -
02/08:30pm 25.9 25.7 24.3 91 1.1 W 33 37 18 20 1006.5 1006.3 -
02/08:00pm 25.9 26.3 24.5 92 1.0 W 30 35 16 19 1006.2 1006.0 -
02/07:30pm 25.9 25.8 24.3 91 1.1 W 32 39 17 21 1005.9 1005.7 -
02/07:00pm 26.0 25.7 24.2 90 1.2 W 33 39 18 21 1005.8 1005.6 -
02/06:30pm 26.5 26.1 24.0 86 1.7 W 33 39 18 21 1005.6 1005.4 -
02/06:00pm 27.0 26.2 23.3 80 2.5 W 33 39 18 21 1005.6 1005.4 -
02/05:30pm 27.9 27.4 23.5 77 3.0 W 32 37 17 20 1005.3 1005.1 -
02/05:00pm 28.3 27.0 23.2 74 3.5 W 35 39 19 21 1005.1 1004.9 -
02/04:30pm 28.7 27.6 23.4 73 3.6 W 35 43 19 23 1005.1 1004.9 -
02/04:00pm 28.9 27.6 23.8 74 3.5 W 37 43 20 23 1005.0 1004.8 -
02/03:30pm 29.2 28.8 24.1 74 3.5 W 33 39 18 21 1005.1 1004.9 -
02/03:00pm 29.4 29.5 24.0 72 3.8 WNW 30 35 16 19 1005.6 1005.4 -
02/02:30pm 29.7 30.2 23.9 71 4.0 W 28 35 15 19 1005.8 1005.6 -
02/02:00pm 30.0 30.1 23.9 70 4.2 W 30 37 16 20 1006.0 1005.8 -
02/01:30pm 30.1 30.2 22.5 63 5.2 W 26 32 14 17 1006.5 1006.3 -
02/01:00pm 30.7 31.4 23.6 66 4.9 W 26 32 14 17 1006.6 1006.4 -
02/12:30pm 30.2 30.1 22.9 65 5.0 W 28 33 15 18 1006.9 1006.7 -
02/12:00pm 30.5 30.8 22.9 64 5.2 W 26 32 14 17 1006.7 1006.5 -
02/11:30am 30.0 29.5 22.2 63 5.3 W 28 32 15 17 1006.9 1006.7 -
02/11:00am 29.9 29.5 22.3 63 5.2 W 28 33 15 18 1006.9 1006.7 -
02/10:30am 30.1 29.7 22.3 63 5.3 W 28 32 15 17 1007.2 1007.0 -
02/10:00am 30.0 29.1 22.2 63 5.3 WSW 30 33 16 18 1007.2 1007.0 -
02/09:30am 29.8 29.0 21.7 61 5.5 WSW 28 33 15 18 1007.2 1007.0 -
02/09:00am 29.8 28.7 21.7 61 5.5 SW 30 33 16 18 1007.1 1006.9 -
02/08:30am 28.9 27.9 21.9 66 4.7 WSW 30 33 16 18 1007.2 1007.0 -
02/08:00am 28.4 27.5 22.2 69 4.2 SW 30 35 16 19 1007.0 1006.8 -
02/07:30am 27.9 26.5 22.2 71 3.8 SW 33 39 18 21 1006.8 1006.6 -
02/07:00am 27.5 26.9 22.7 75 3.3 SW 30 37 16 20 1006.6 1006.4 -
02/06:30am 26.7 25.8 23.2 81 2.4 SW 33 41 18 22 1006.2 1006.0 -
02/06:00am 26.3 25.5 23.4 84 2.0 WSW 33 41 18 22 1006.2 1006.0 -
02/05:30am 26.0 25.3 23.5 86 1.7 WSW 33 39 18 21 1006.1 1005.9 -
02/05:00am 26.1 25.7 24.0 88 1.4 WSW 33 41 18 22 1005.7 1005.5 -
02/04:30am 26.2 25.3 23.9 87 1.6 WSW 35 39 19 21 1005.7 1005.5 -
02/04:00am 26.2 25.8 24.1 88 1.5 WSW 33 41 18 22 1005.6 1005.4 -
02/03:30am 26.3 25.3 24.3 89 1.4 WSW 37 41 20 22 1005.4 1005.2 -
02/03:00am 26.4 25.5 23.9 86 1.7 SW 35 44 19 24 1005.3 1005.1 -
02/02:30am 26.7 24.6 22.3 77 3.0 WSW 37 46 20 25 1005.3 1005.1 -
02/02:00am 26.8 23.4 21.3 72 3.7 WSW 41 48 22 26 1005.1 1004.9 -
02/01:30am 26.6 24.7 22.7 79 2.6 WSW 37 48 20 26 1005.3 1005.1 -
02/01:00am 26.2 24.8 23.7 86 1.7 WSW 37 43 20 23 1005.3 1005.1 -
02/12:30am 26.3 25.5 24.0 87 1.6 WSW 35 43 19 23 1005.5 1005.3 -
02/12:00am 26.5 25.4 24.2 87 1.6 WSW 37 43 20 23 1005.9 1005.7 -
 
Date/Time
WST
Temp
°C
App
Temp
°C
Dew
Point
°C
Rel
Hum
%
Delta-T
°C
Wind Press
QNH
hPa
Press
MSL
hPa
Rain since
9am
mm
Dir  Spd
km/h
Gust
km/h
Spd
kts
Gust
kts
01/11:30pm 26.6 26.2 24.1 86 1.7 WSW 33 41 18 22 1006.3 1006.1 -
01/11:00pm 26.8 25.5 23.1 80 2.5 WSW 35 43 19 23 1006.3 1006.1 -
01/10:30pm 27.1 25.4 22.5 76 3.1 WSW 35 41 19 22 1006.3 1006.1 -
01/10:00pm 26.9 25.6 23.2 80 2.5 WSW 35 39 19 21 1006.2 1006.0 -
01/09:30pm 26.9 26.2 24.2 85 1.9 WSW 35 41 19 22 1006.2 1006.0 -
01/09:00pm 26.7 26.1 24.4 87 1.6 WSW 35 43 19 23 1005.9 1005.7 -
01/08:30pm 26.7 26.5 24.4 87 1.6 WSW 33 41 18 22 1005.8 1005.6 -
01/08:00pm 26.9 26.3 24.4 86 1.7 WSW 35 43 19 23 1005.5 1005.3 -
01/07:30pm 27.1 26.5 24.4 85 1.9 WSW 35 43 19 23 1005.0 1004.8 -
01/07:00pm 27.1 26.4 24.2 84 2.0 WSW 35 43 19 23 1004.7 1004.5 -
01/06:30pm 27.4 26.8 23.4 79 2.7 W 32 41 17 22 1004.4 1004.2 -
01/06:00pm 28.0 27.2 23.4 76 3.2 W 33 41 18 22 1004.1 1003.9 -
01/05:30pm 29.0 28.7 23.9 74 3.5 W 32 41 17 22 1004.2 1004.0 -
01/05:00pm 29.4 28.9 23.6 71 4.0 W 32 37 17 20 1004.1 1003.9 -
01/04:30pm 29.6 28.9 23.5 69 4.2 W 33 43 18 23 1004.1 1003.9 -
01/04:00pm 30.0 29.1 23.9 70 4.2 W 35 43 19 23 1004.2 1004.0 -
01/03:30pm 29.5 28.6 23.9 72 3.9 W 35 44 19 24 1004.4 1004.2 -
01/03:00pm 30.1 29.6 23.8 69 4.4 W 33 43 18 23 1004.7 1004.5 -
01/02:30pm 29.9 28.1 22.3 63 5.2 W 35 43 19 23 1005.0 1004.8 -
01/02:00pm 30.9 29.8 22.8 62 5.6 W 33 41 18 22 1005.4 1005.2 -
01/01:30pm 30.6 30.3 23.3 65 5.0 W 30 35 16 19 1005.7 1005.5 -
01/01:00pm 30.6 29.6 22.7 62 5.4 W 32 37 17 20 1006.0 1005.8 -
01/12:30pm 31.1 30.2 23.2 63 5.4 W 33 37 18 20 1006.3 1006.1 -
01/12:00pm 30.4 28.6 22.3 62 5.5 W 35 41 19 22 1006.5 1006.3 -
01/11:30am 30.9 30.2 22.5 61 5.7 W 30 35 16 19 1006.7 1006.5 -
01/11:00am 30.2 29.0 21.6 60 5.8 WSW 30 35 16 19 1007.1 1006.9 -
01/10:30am 30.9 30.9 21.7 58 6.2 WSW 24 30 13 16 1007.5 1007.3 -
01/10:00am 31.8 30.8 20.4 51 7.6 WSW 26 32 14 17 1007.6 1007.4 -
01/09:30am 30.8 29.0 20.4 54 6.9 SW 30 33 16 18 1007.6 1007.4 -
01/09:00am 30.4 28.9 20.3 54 6.7 SW 28 32 15 17 1007.8 1007.6 -
01/08:30am 30.3 28.2 19.0 50 7.3 SW 28 33 15 18 1007.9 1007.7 -
01/08:00am 29.8 27.6 18.6 51 7.2 SW 28 33 15 18 1007.7 1007.5 -
01/07:30am 29.3 26.7 18.7 52 6.8 WSW 30 35 16 19 1007.6 1007.5 -
01/07:00am 28.7 26.3 19.1 56 6.2 WSW 30 35 16 19 1007.5 1007.4 -
01/06:30am 28.1 25.5 19.6 60 5.5 WSW 32 37 17 20 1007.1 1006.9 -
01/06:00am 27.6 24.6 19.1 59 5.5 WSW 33 37 18 20 1006.9 1006.7 -
01/05:30am 27.3 24.7 19.6 62 5.0 SW 32 37 17 20 1006.7 1006.5 -
01/05:00am 27.4 25.4 20.7 67 4.4 WSW 32 35 17 19 1006.7 1006.5 -
01/04:30am 27.3 26.3 22.0 73 3.6 SW 30 35 16 19 1006.6 1006.4 -
01/04:00am 26.9 27.7 24.5 87 1.7 WSW 28 33 15 18 1006.6 1006.4 -
01/03:30am 26.8 27.7 25.2 91 1.1 WSW 30 35 16 19 1006.5 1006.3 -
01/03:00am 26.6 27.5 25.2 92 1.0 WSW 30 35 16 19 1006.6 1006.4 -
01/02:30am 26.5 27.8 25.3 93 0.8 WSW 28 33 15 18 1006.6 1006.4 -
01/02:00am 26.5 28.3 25.5 94 0.7 WSW 26 32 14 17 1006.6 1006.4 -
01/01:30am 26.6 28.9 25.6 94 0.7 WSW 24 30 13 16 1006.8 1006.6 -
01/01:00am 26.7 27.5 25.1 91 1.1 WSW 30 35 16 19 1006.7 1006.5 -
01/12:30am 26.6 28.0 24.8 90 1.3 WSW 26 30 14 16 1007.5 1007.4 -
01/12:00am 26.6 28.5 25.0 91 1.1 W 24 33 13 18 1007.7 1007.6 -
 
Date/Time
WST
Temp
°C
App
Temp
°C
Dew
Point
°C
Rel
Hum
%
Delta-T
°C
Wind Press
QNH
hPa
Press
MSL
hPa
Rain since
9am
mm
Dir  Spd
km/h
Gust
km/h
Spd
kts
Gust
kts
30/11:30pm 26.6 28.5 25.0 91 1.1 W 24 32 13 17 1007.6 1007.5 -
30/11:00pm 26.7 28.2 24.9 90 1.3 W 26 32 14 17 1007.8 1007.7 -
30/10:30pm 26.7 28.0 24.7 89 1.4 W 26 32 14 17 1007.9 1007.8 -
30/10:00pm 26.7 27.3 24.7 89 1.4 W 30 37 16 20 1007.9 1007.8 -
30/09:30pm 26.7 27.8 24.9 90 1.3 W 28 32 15 17 1007.8 1007.7 -
30/09:00pm 26.8 27.9 25.0 90 1.3 W 28 33 15 18 1007.4 1007.3 -
30/08:30pm 26.8 28.3 25.0 90 1.3 WNW 26 32 14 17 1007.1 1006.9 -
30/08:00pm 26.9 28.1 25.1 90 1.3 W 28 32 15 17 1007.0 1006.8 -
30/07:30pm 26.9 28.6 25.3 91 1.1 WNW 26 32 14 17 1006.7 1006.5 -
30/07:00pm 26.9 29.0 25.3 91 1.1 WNW 24 30 13 16 1006.5 1006.3 -
30/06:30pm 27.4 29.2 24.8 86 1.8 WNW 24 30 13 16 1006.2 1006.0 -
30/06:00pm 28.0 29.3 24.0 79 2.8 WNW 24 32 13 17 1005.9 1005.7 -
30/05:30pm 28.8 30.1 24.1 76 3.3 WNW 24 30 13 16 1005.8 1005.6 -

Other Formats:

Comma delimited format used in spreadsheet applications
http://www.bom.gov.au/fwo/IDW60801/IDW60801.94307.axf

JavaScript Object Notation format (JSON) in row-major order
http://www.bom.gov.au/fwo/IDW60801/IDW60801.94307.json